createdAt,value
2023-12-26T00:00:14.629Z,100.00
2023-12-26T00:05:21.114Z,100.00
2023-12-26T00:10:24.634Z,100.00
2023-12-26T00:15:28.130Z,100.00
2023-12-26T00:20:33.020Z,100.00
2023-12-26T00:25:36.401Z,100.00
2023-12-26T00:30:39.903Z,100.00
2023-12-26T00:35:44.768Z,100.00
2023-12-26T00:40:48.470Z,100.00
2023-12-26T00:45:51.871Z,100.00
2023-12-26T00:50:56.510Z,100.00
2023-12-26T00:55:59.899Z,100.00
2023-12-26T01:01:03.936Z,100.00
2023-12-26T01:06:09.056Z,100.00
2023-12-26T01:11:12.493Z,100.00
2023-12-26T01:16:15.814Z,100.00
2023-12-26T01:21:20.685Z,100.00
2023-12-26T01:26:24.462Z,100.00
2023-12-26T01:31:27.778Z,100.00
2023-12-26T01:36:34.428Z,100.00
2023-12-26T01:41:38.931Z,100.00
2023-12-26T01:46:42.685Z,100.00
2023-12-26T01:51:49.436Z,100.00
2023-12-26T01:56:52.874Z,100.00
2023-12-26T02:01:56.230Z,100.00
2023-12-26T02:07:01.249Z,100.00
2023-12-26T02:12:05.968Z,100.00
2023-12-26T02:17:14.047Z,100.00
2023-12-26T02:22:18.835Z,100.00
2023-12-26T02:27:30.209Z,100.00
2023-12-26T02:32:33.688Z,100.00
2023-12-26T02:37:38.063Z,100.00
2023-12-26T02:42:42.675Z,100.00
2023-12-26T02:47:46.036Z,100.00
2023-12-26T02:52:49.559Z,100.00
2023-12-26T02:57:54.260Z,100.00
2023-12-26T03:02:58.045Z,100.00
2023-12-26T03:08:01.587Z,100.00
2023-12-26T03:13:06.380Z,100.00
2023-12-26T03:18:09.924Z,100.00
2023-12-26T03:23:14.777Z,100.00
2023-12-26T03:28:19.481Z,100.00
2023-12-26T03:33:22.984Z,100.00
2023-12-26T03:38:26.532Z,100.00
2023-12-26T03:43:31.491Z,100.00
2023-12-26T03:48:35.206Z,100.00
2023-12-26T03:53:38.819Z,100.00
2023-12-26T03:58:43.571Z,100.00
2023-12-26T04:03:47.508Z,100.00
2023-12-26T04:08:50.966Z,100.00
2023-12-26T04:13:55.814Z,100.00
2023-12-26T04:18:59.232Z,100.00
2023-12-26T04:24:02.678Z,100.00
2023-12-26T04:29:07.632Z,100.00
2023-12-26T04:34:11.164Z,100.00
2023-12-26T04:39:14.812Z,100.00
2023-12-26T04:44:20.635Z,100.00
2023-12-26T04:49:24.041Z,100.00
2023-12-26T04:54:27.351Z,100.00
2023-12-26T04:59:32.390Z,100.00
2023-12-26T05:04:36.136Z,100.00
2023-12-26T05:09:40.081Z,100.00
2023-12-26T05:14:44.828Z,100.00
2023-12-26T05:19:48.254Z,100.00
2023-12-26T05:24:53.802Z,100.00
2023-12-26T05:30:00.155Z,100.00
2023-12-26T05:35:03.652Z,100.00
2023-12-26T05:40:08.534Z,100.00
2023-12-26T05:45:13.683Z,100.00
2023-12-26T05:50:17.848Z,100.00
2023-12-26T05:55:21.551Z,100.00
2023-12-26T06:00:26.314Z,100.00
2023-12-26T06:05:29.810Z,100.00
2023-12-26T06:10:34.034Z,100.00
2023-12-26T06:15:38.775Z,100.00
2023-12-26T06:20:42.372Z,100.00
2023-12-26T06:25:46.190Z,100.00
2023-12-26T06:30:51.542Z,100.00
2023-12-26T06:35:55.357Z,100.00
2023-12-26T06:40:58.792Z,100.00
2023-12-26T06:46:06.320Z,100.00
2023-12-26T06:51:11.438Z,100.00
2023-12-26T06:56:14.849Z,100.00
2023-12-26T07:01:19.747Z,100.00
2023-12-26T07:06:23.276Z,100.00
2023-12-26T07:11:26.650Z,100.00
2023-12-26T07:16:32.202Z,100.00
2023-12-26T07:21:35.669Z,100.00
2023-12-26T07:26:39.165Z,100.00
2023-12-26T07:31:44.021Z,100.00
2023-12-26T07:36:48.589Z,100.00
2023-12-26T07:41:52.909Z,100.00
2023-12-26T07:46:58.246Z,100.00
2023-12-26T07:52:01.843Z,100.00
2023-12-26T07:57:05.961Z,100.00
2023-12-26T08:02:11.407Z,100.00
2023-12-26T08:07:14.936Z,100.00
2023-12-26T08:12:18.401Z,100.00
2023-12-26T08:17:23.465Z,100.00
2023-12-26T08:22:26.918Z,100.00
2023-12-26T08:27:30.355Z,100.00
2023-12-26T08:32:35.335Z,100.00
2023-12-26T08:37:38.796Z,100.00
2023-12-26T08:42:42.434Z,100.00
2023-12-26T08:47:47.760Z,100.00
2023-12-26T08:52:51.398Z,100.00
2023-12-26T08:57:54.653Z,100.00
2023-12-26T09:03:06.395Z,100.00
2023-12-26T09:08:11.246Z,100.00
2023-12-26T09:13:16.655Z,100.00
2023-12-26T09:18:21.678Z,99.19
2023-12-26T09:23:25.046Z,99.33
2023-12-26T09:28:28.326Z,99.37
2023-12-26T09:33:33.291Z,97.24
2023-12-26T09:38:37.132Z,97.34
2023-12-26T09:43:41.626Z,96.27
2023-12-26T09:48:46.694Z,95.33
2023-12-26T09:53:57.567Z,95.22
2023-12-26T09:59:03.094Z,95.66
2023-12-26T10:04:08.915Z,93.20
2023-12-26T10:09:12.641Z,92.03
2023-12-26T10:14:29.080Z,93.78
2023-12-26T10:19:34.027Z,89.95
2023-12-26T10:24:37.417Z,92.50
2023-12-26T10:29:40.781Z,92.05
2023-12-26T10:34:45.898Z,93.33
2023-12-26T10:39:49.297Z,100.00
2023-12-26T10:44:55.415Z,100.00
2023-12-26T10:50:02.144Z,97.80
2023-12-26T10:55:08.014Z,96.55
2023-12-26T11:01:06.249Z,96.86
2023-12-26T11:07:34.298Z,98.86
2023-12-26T11:13:50.711Z,94.43
2023-12-26T11:20:06.958Z,95.14
2023-12-26T11:26:23.028Z,93.88
2023-12-26T11:32:39.731Z,92.28
2023-12-26T11:38:56.163Z,92.18
2023-12-26T11:45:13.057Z,92.95
2023-12-26T11:51:29.953Z,89.29
2023-12-26T11:57:46.703Z,89.58
2023-12-26T12:04:03.450Z,89.66
2023-12-26T12:10:20.289Z,92.52
2023-12-26T12:16:37.293Z,92.72
2023-12-26T12:22:54.348Z,92.79
2023-12-26T12:29:11.266Z,92.20
2023-12-26T12:35:28.531Z,92.84
2023-12-26T12:41:45.224Z,91.29
2023-12-26T12:48:01.876Z,91.17
2023-12-26T12:54:18.401Z,89.95
2023-12-26T13:00:35.121Z,89.41
2023-12-26T13:06:51.844Z,88.59
2023-12-26T13:13:08.824Z,87.36
2023-12-26T13:19:25.696Z,82.71
2023-12-26T13:25:42.473Z,82.20
2023-12-26T13:32:00.436Z,83.92
2023-12-26T13:38:17.483Z,87.04
2023-12-26T13:44:34.397Z,84.78
2023-12-26T13:50:51.748Z,84.51
2023-12-26T13:56:50.728Z,85.96
2023-12-26T14:02:31.097Z,88.71
2023-12-26T14:08:11.516Z,88.64
2023-12-26T14:13:51.678Z,93.42
2023-12-26T14:19:32.181Z,94.95
2023-12-26T14:25:13.010Z,95.47
2023-12-26T14:30:53.560Z,95.75
2023-12-26T14:36:34.496Z,91.66
2023-12-26T14:42:15.012Z,91.69
2023-12-26T14:47:55.324Z,93.66
2023-12-26T14:53:35.630Z,91.07
2023-12-26T14:59:17.466Z,90.42
2023-12-26T15:04:24.875Z,87.71
2023-12-26T15:09:31.041Z,88.02
2023-12-26T15:14:42.375Z,87.92
2023-12-26T15:19:49.425Z,87.74
2023-12-26T15:24:52.978Z,89.57
2023-12-26T15:29:56.327Z,89.42
2023-12-26T15:35:02.213Z,91.21
2023-12-26T15:40:07.094Z,89.78
2023-12-26T15:45:11.747Z,90.17
2023-12-26T15:50:16.659Z,90.07
2023-12-26T15:55:21.688Z,89.51
2023-12-26T16:00:25.286Z,87.37
2023-12-26T16:05:30.126Z,85.31
2023-12-26T16:10:33.634Z,84.17
2023-12-26T16:15:37.310Z,86.76
2023-12-26T16:20:43.026Z,86.44
2023-12-26T16:25:47.124Z,87.53
2023-12-26T16:30:51.940Z,86.12
2023-12-26T16:35:59.919Z,84.10
2023-12-26T16:41:07.946Z,85.73
2023-12-26T16:46:12.843Z,87.60
2023-12-26T16:51:17.669Z,85.94
2023-12-26T16:56:21.592Z,81.96
2023-12-26T17:01:25.141Z,83.74
2023-12-26T17:06:30.368Z,81.61
2023-12-26T17:11:34.118Z,83.14
2023-12-26T17:16:37.590Z,83.00
2023-12-26T17:21:42.528Z,83.08
2023-12-26T17:27:06.430Z,83.01
2023-12-26T17:32:29.737Z,87.30
2023-12-26T17:37:34.433Z,82.62
2023-12-26T17:42:38.915Z,84.45
2023-12-26T17:47:42.816Z,83.18
2023-12-26T17:52:49.461Z,88.57
2023-12-26T17:57:54.504Z,84.91
2023-12-26T18:02:58.108Z,82.93
2023-12-26T18:08:03.033Z,83.11
2023-12-26T18:13:06.569Z,81.76
2023-12-26T18:18:11.016Z,81.07
2023-12-26T18:23:16.562Z,82.69
2023-12-26T18:28:20.172Z,83.18
2023-12-26T18:33:24.145Z,83.82
2023-12-26T18:38:30.866Z,81.85
2023-12-26T18:43:34.217Z,79.89
2023-12-26T18:48:37.712Z,79.63
2023-12-26T18:53:42.517Z,80.86
2023-12-26T18:58:45.776Z,78.32
2023-12-26T19:03:49.699Z,77.49
2023-12-26T19:08:54.695Z,78.33
2023-12-26T19:13:58.144Z,82.44
2023-12-26T19:19:01.663Z,81.57
2023-12-26T19:24:07.743Z,85.38
2023-12-26T19:29:11.296Z,85.37
2023-12-26T19:34:14.711Z,94.97
2023-12-26T19:39:19.799Z,92.96
2023-12-26T19:44:23.362Z,95.05
2023-12-26T19:49:27.098Z,93.98
2023-12-26T19:54:32.408Z,94.83
2023-12-26T19:59:35.824Z,97.28
2023-12-26T20:04:40.177Z,98.21
2023-12-26T20:09:45.221Z,95.80
2023-12-26T20:14:48.652Z,100.00
2023-12-26T20:19:54.349Z,97.52
2023-12-26T20:25:00.380Z,100.00
2023-12-26T20:30:04.252Z,96.76
2023-12-26T20:35:09.384Z,97.14
2023-12-26T20:40:15.528Z,94.85
2023-12-26T20:45:19.711Z,94.47
2023-12-26T20:50:23.776Z,95.55
2023-12-26T20:55:29.858Z,95.89
2023-12-26T21:00:33.153Z,96.47
2023-12-26T21:05:36.676Z,95.73
2023-12-26T21:10:41.857Z,96.76
2023-12-26T21:15:45.341Z,95.82
2023-12-26T21:20:48.585Z,97.02
2023-12-26T21:25:53.259Z,98.12
2023-12-26T21:30:56.683Z,96.48
2023-12-26T21:36:00.065Z,97.45
2023-12-26T21:41:06.665Z,95.46
2023-12-26T21:46:10.756Z,97.76
2023-12-26T21:51:15.336Z,98.21
2023-12-26T21:56:20.122Z,100.00
2023-12-26T22:01:25.064Z,98.87
2023-12-26T22:06:28.732Z,98.24
2023-12-26T22:11:33.382Z,98.19
2023-12-26T22:16:36.595Z,100.00
2023-12-26T22:21:42.367Z,99.61
2023-12-26T22:26:47.002Z,100.00
2023-12-26T22:31:50.313Z,99.93
2023-12-26T22:36:53.628Z,100.00
2023-12-26T22:41:58.360Z,100.00
2023-12-26T22:47:01.627Z,100.00
2023-12-26T22:52:04.962Z,100.00
2023-12-26T22:57:09.872Z,100.00
2023-12-26T23:02:13.353Z,100.00
2023-12-26T23:07:17.930Z,100.00
2023-12-26T23:12:23.213Z,100.00
2023-12-26T23:17:28.148Z,100.00
2023-12-26T23:22:32.452Z,100.00
2023-12-26T23:27:37.100Z,100.00
2023-12-26T23:32:40.398Z,100.00
2023-12-26T23:37:43.642Z,100.00
2023-12-26T23:42:48.224Z,100.00
2023-12-26T23:47:51.565Z,100.00
2023-12-26T23:52:54.843Z,100.00
2023-12-26T23:57:59.669Z,100.00
